sensor_id;sensor_type;location;lat;lon;timestamp;P1;durP1;ratioP1;P2;durP2;ratioP2
16228;SDS011;8222;51.462;12.630;2022-08-24T00:00:13;6.30;;;5.80;;
16228;SDS011;8222;51.462;12.630;2022-08-24T00:02:42;6.85;;;6.25;;
16228;SDS011;8222;51.462;12.630;2022-08-24T00:05:08;6.38;;;5.80;;
16228;SDS011;8222;51.462;12.630;2022-08-24T00:07:34;6.43;;;5.85;;
16228;SDS011;8222;51.462;12.630;2022-08-24T00:10:01;6.80;;;6.20;;
16228;SDS011;8222;51.462;12.630;2022-08-24T00:12:28;6.60;;;6.10;;
16228;SDS011;8222;51.462;12.630;2022-08-24T00:14:55;6.85;;;6.15;;
16228;SDS011;8222;51.462;12.630;2022-08-24T00:17:21;6.85;;;6.30;;
16228;SDS011;8222;51.462;12.630;2022-08-24T00:19:46;6.93;;;6.33;;
16228;SDS011;8222;51.462;12.630;2022-08-24T00:22:12;6.80;;;6.30;;
16228;SDS011;8222;51.462;12.630;2022-08-24T00:24:38;6.07;;;5.65;;
16228;SDS011;8222;51.462;12.630;2022-08-24T00:27:05;6.70;;;6.20;;
16228;SDS011;8222;51.462;12.630;2022-08-24T00:29:31;6.43;;;5.95;;
16228;SDS011;8222;51.462;12.630;2022-08-24T00:31:58;6.30;;;5.88;;
16228;SDS011;8222;51.462;12.630;2022-08-24T00:34:23;6.40;;;5.80;;
16228;SDS011;8222;51.462;12.630;2022-08-24T00:36:51;6.23;;;5.73;;
16228;SDS011;8222;51.462;12.630;2022-08-24T00:39:17;6.47;;;5.93;;
16228;SDS011;8222;51.462;12.630;2022-08-24T00:41:44;6.50;;;5.90;;
16228;SDS011;8222;51.462;12.630;2022-08-24T00:44:12;6.10;;;5.70;;
16228;SDS011;8222;51.462;12.630;2022-08-24T00:52:17;6.65;;;6.07;;
16228;SDS011;8222;51.462;12.630;2022-08-24T00:55:07;6.38;;;5.88;;
16228;SDS011;8222;51.462;12.630;2022-08-24T00:57:38;6.65;;;6.20;;
16228;SDS011;8222;51.462;12.630;2022-08-24T01:00:11;7.65;;;7.05;;
16228;SDS011;8222;51.462;12.630;2022-08-24T01:02:59;6.90;;;6.40;;
16228;SDS011;8222;51.462;12.630;2022-08-24T01:05:32;7.75;;;7.15;;
16228;SDS011;8222;51.462;12.630;2022-08-24T01:08:00;7.80;;;7.20;;
16228;SDS011;8222;51.462;12.630;2022-08-24T01:10:29;7.30;;;6.77;;
16228;SDS011;8222;51.462;12.630;2022-08-24T01:12:57;7.50;;;6.95;;
16228;SDS011;8222;51.462;12.630;2022-08-24T01:15:26;7.13;;;6.63;;
16228;SDS011;8222;51.462;12.630;2022-08-24T01:17:53;7.07;;;6.37;;
16228;SDS011;8222;51.462;12.630;2022-08-24T01:20:39;7.10;;;6.50;;
16228;SDS011;8222;51.462;12.630;2022-08-24T01:25:51;6.78;;;6.28;;
16228;SDS011;8222;51.462;12.630;2022-08-24T01:28:17;7.03;;;6.47;;
16228;SDS011;8222;51.462;12.630;2022-08-24T01:30:45;7.43;;;6.93;;
16228;SDS011;8222;51.462;12.630;2022-08-24T01:33:20;7.68;;;7.07;;
16228;SDS011;8222;51.462;12.630;2022-08-24T01:35:48;6.80;;;6.30;;
16228;SDS011;8222;51.462;12.630;2022-08-24T01:38:14;6.43;;;5.90;;
16228;SDS011;8222;51.462;12.630;2022-08-24T01:40:43;6.55;;;5.95;;
16228;SDS011;8222;51.462;12.630;2022-08-24T01:43:12;6.30;;;5.78;;
16228;SDS011;8222;51.462;12.630;2022-08-24T01:45:39;6.07;;;5.63;;
16228;SDS011;8222;51.462;12.630;2022-08-24T01:48:05;5.63;;;5.22;;
16228;SDS011;8222;51.462;12.630;2022-08-24T01:50:31;6.70;;;6.15;;
16228;SDS011;8222;51.462;12.630;2022-08-24T01:52:58;6.78;;;6.28;;
16228;SDS011;8222;51.462;12.630;2022-08-24T01:55:27;6.63;;;6.13;;
16228;SDS011;8222;51.462;12.630;2022-08-24T01:57:53;7.22;;;6.63;;
16228;SDS011;8222;51.462;12.630;2022-08-24T02:00:19;6.63;;;6.03;;
16228;SDS011;8222;51.462;12.630;2022-08-24T02:02:45;6.60;;;6.15;;
16228;SDS011;8222;51.462;12.630;2022-08-24T02:05:12;7.10;;;6.50;;
16228;SDS011;8222;51.462;12.630;2022-08-24T02:07:39;6.32;;;5.82;;
16228;SDS011;8222;51.462;12.630;2022-08-24T02:10:05;6.65;;;6.05;;
16228;SDS011;8222;51.462;12.630;2022-08-24T02:12:33;7.60;;;6.97;;
16228;SDS011;8222;51.462;12.630;2022-08-24T02:15:01;7.95;;;7.35;;
16228;SDS011;8222;51.462;12.630;2022-08-24T02:17:30;7.13;;;6.63;;
16228;SDS011;8222;51.462;12.630;2022-08-24T02:19:56;7.10;;;6.50;;
16228;SDS011;8222;51.462;12.630;2022-08-24T02:22:21;6.87;;;6.37;;
16228;SDS011;8222;51.462;12.630;2022-08-24T02:24:47;6.25;;;5.82;;
16228;SDS011;8222;51.462;12.630;2022-08-24T02:27:13;7.05;;;6.55;;
16228;SDS011;8222;51.462;12.630;2022-08-24T02:29:41;6.83;;;6.23;;
16228;SDS011;8222;51.462;12.630;2022-08-24T02:32:07;6.68;;;6.15;;
16228;SDS011;8222;51.462;12.630;2022-08-24T02:34:33;7.43;;;6.93;;
16228;SDS011;8222;51.462;12.630;2022-08-24T02:36:59;7.97;;;7.28;;
16228;SDS011;8222;51.462;12.630;2022-08-24T02:39:25;6.38;;;5.97;;
16228;SDS011;8222;51.462;12.630;2022-08-24T02:41:51;7.10;;;6.53;;
16228;SDS011;8222;51.462;12.630;2022-08-24T02:44:17;6.47;;;6.07;;
16228;SDS011;8222;51.462;12.630;2022-08-24T02:46:43;7.10;;;6.60;;
16228;SDS011;8222;51.462;12.630;2022-08-24T02:49:08;7.20;;;6.60;;
16228;SDS011;8222;51.462;12.630;2022-08-24T02:51:34;6.70;;;6.17;;
16228;SDS011;8222;51.462;12.630;2022-08-24T02:54:01;7.38;;;6.78;;
16228;SDS011;8222;51.462;12.630;2022-08-24T02:56:29;6.77;;;6.37;;
16228;SDS011;8222;51.462;12.630;2022-08-24T02:58:59;7.10;;;6.30;;
16228;SDS011;8222;51.462;12.630;2022-08-24T03:01:26;6.63;;;6.07;;
16228;SDS011;8222;51.462;12.630;2022-08-24T03:03:52;6.80;;;6.30;;
16228;SDS011;8222;51.462;12.630;2022-08-24T03:06:18;6.25;;;5.85;;
16228;SDS011;8222;51.462;12.630;2022-08-24T03:08:44;6.60;;;6.10;;
16228;SDS011;8222;51.462;12.630;2022-08-24T03:11:10;6.60;;;6.20;;
16228;SDS011;8222;51.462;12.630;2022-08-24T03:13:38;7.13;;;6.53;;
16228;SDS011;8222;51.462;12.630;2022-08-24T03:16:04;6.95;;;6.45;;
16228;SDS011;8222;51.462;12.630;2022-08-24T03:18:31;7.77;;;6.57;;
16228;SDS011;8222;51.462;12.630;2022-08-24T03:20:58;9.15;;;6.88;;
16228;SDS011;8222;51.462;12.630;2022-08-24T03:23:25;7.28;;;6.78;;
16228;SDS011;8222;51.462;12.630;2022-08-24T03:25:52;7.15;;;6.65;;
16228;SDS011;8222;51.462;12.630;2022-08-24T03:28:19;6.80;;;6.28;;
16228;SDS011;8222;51.462;12.630;2022-08-24T03:30:47;6.88;;;6.25;;
16228;SDS011;8222;51.462;12.630;2022-08-24T03:33:13;7.80;;;7.20;;
16228;SDS011;8222;51.462;12.630;2022-08-24T03:35:38;8.50;;;7.80;;
16228;SDS011;8222;51.462;12.630;2022-08-24T03:38:04;9.02;;;8.38;;
16228;SDS011;8222;51.462;12.630;2022-08-24T03:40:31;9.18;;;8.40;;
16228;SDS011;8222;51.462;12.630;2022-08-24T03:42:57;8.85;;;8.15;;
16228;SDS011;8222;51.462;12.630;2022-08-24T03:45:24;9.55;;;8.77;;
16228;SDS011;8222;51.462;12.630;2022-08-24T03:47:51;9.30;;;8.50;;
16228;SDS011;8222;51.462;12.630;2022-08-24T03:50:17;9.27;;;8.48;;
16228;SDS011;8222;51.462;12.630;2022-08-24T03:52:44;9.32;;;8.52;;
16228;SDS011;8222;51.462;12.630;2022-08-24T03:55:10;9.57;;;8.73;;
16228;SDS011;8222;51.462;12.630;2022-08-24T03:57:36;9.50;;;8.60;;
16228;SDS011;8222;51.462;12.630;2022-08-24T04:00:06;9.25;;;8.55;;
16228;SDS011;8222;51.462;12.630;2022-08-24T04:02:34;9.80;;;9.07;;
16228;SDS011;8222;51.462;12.630;2022-08-24T04:04:59;9.27;;;8.57;;
16228;SDS011;8222;51.462;12.630;2022-08-24T04:07:25;10.52;;;9.73;;
16228;SDS011;8222;51.462;12.630;2022-08-24T04:09:51;8.88;;;8.23;;
16228;SDS011;8222;51.462;12.630;2022-08-24T04:12:17;8.73;;;8.02;;
16228;SDS011;8222;51.462;12.630;2022-08-24T04:14:43;8.93;;;8.25;;
16228;SDS011;8222;51.462;12.630;2022-08-24T04:17:09;9.00;;;8.30;;
16228;SDS011;8222;51.462;12.630;2022-08-24T04:19:36;8.77;;;8.07;;
16228;SDS011;8222;51.462;12.630;2022-08-24T04:22:21;9.70;;;8.90;;
16228;SDS011;8222;51.462;12.630;2022-08-24T04:24:47;9.45;;;8.55;;
16228;SDS011;8222;51.462;12.630;2022-08-24T04:27:13;10.23;;;9.53;;
16228;SDS011;8222;51.462;12.630;2022-08-24T04:29:39;10.10;;;9.30;;
16228;SDS011;8222;51.462;12.630;2022-08-24T04:32:04;10.00;;;9.20;;
16228;SDS011;8222;51.462;12.630;2022-08-24T04:34:31;9.60;;;8.80;;
16228;SDS011;8222;51.462;12.630;2022-08-24T04:36:57;10.45;;;9.55;;
16228;SDS011;8222;51.462;12.630;2022-08-24T04:39:23;10.90;;;10.07;;
16228;SDS011;8222;51.462;12.630;2022-08-24T04:41:49;10.47;;;9.67;;
16228;SDS011;8222;51.462;12.630;2022-08-24T04:44:14;12.67;;;11.57;;
16228;SDS011;8222;51.462;12.630;2022-08-24T04:46:40;10.33;;;9.43;;
16228;SDS011;8222;51.462;12.630;2022-08-24T04:49:06;12.07;;;11.07;;
16228;SDS011;8222;51.462;12.630;2022-08-24T04:51:32;10.88;;;9.98;;
16228;SDS011;8222;51.462;12.630;2022-08-24T04:53:58;12.05;;;11.15;;
16228;SDS011;8222;51.462;12.630;2022-08-24T04:56:24;11.07;;;10.18;;
16228;SDS011;8222;51.462;12.630;2022-08-24T04:58:50;10.85;;;9.93;;
16228;SDS011;8222;51.462;12.630;2022-08-24T05:01:18;11.23;;;10.32;;
16228;SDS011;8222;51.462;12.630;2022-08-24T05:03:46;11.15;;;10.20;;
16228;SDS011;8222;51.462;12.630;2022-08-24T05:06:14;12.98;;;11.77;;
16228;SDS011;8222;51.462;12.630;2022-08-24T05:08:41;12.23;;;11.32;;
16228;SDS011;8222;51.462;12.630;2022-08-24T05:11:08;11.82;;;10.98;;
16228;SDS011;8222;51.462;12.630;2022-08-24T05:13:34;12.47;;;11.57;;
16228;SDS011;8222;51.462;12.630;2022-08-24T05:16:00;12.98;;;11.70;;
16228;SDS011;8222;51.462;12.630;2022-08-24T05:18:29;12.10;;;11.20;;
16228;SDS011;8222;51.462;12.630;2022-08-24T05:20:57;13.23;;;12.13;;
16228;SDS011;8222;51.462;12.630;2022-08-24T05:23:23;13.30;;;12.20;;
16228;SDS011;8222;51.462;12.630;2022-08-24T05:25:49;12.90;;;11.90;;
16228;SDS011;8222;51.462;12.630;2022-08-24T05:28:15;13.30;;;12.10;;
16228;SDS011;8222;51.462;12.630;2022-08-24T05:30:41;12.02;;;10.93;;
16228;SDS011;8222;51.462;12.630;2022-08-24T05:33:06;12.17;;;11.10;;
16228;SDS011;8222;51.462;12.630;2022-08-24T05:35:36;12.97;;;11.87;;
16228;SDS011;8222;51.462;12.630;2022-08-24T05:38:03;12.57;;;11.53;;
16228;SDS011;8222;51.462;12.630;2022-08-24T05:40:29;12.27;;;11.30;;
16228;SDS011;8222;51.462;12.630;2022-08-24T05:42:54;13.02;;;12.00;;
16228;SDS011;8222;51.462;12.630;2022-08-24T05:45:20;11.93;;;11.05;;
16228;SDS011;8222;51.462;12.630;2022-08-24T05:47:46;16.87;;;15.40;;
16228;SDS011;8222;51.462;12.630;2022-08-24T05:50:11;13.23;;;12.10;;
16228;SDS011;8222;51.462;12.630;2022-08-24T05:52:37;13.88;;;12.68;;
16228;SDS011;8222;51.462;12.630;2022-08-24T05:55:02;12.80;;;11.77;;
16228;SDS011;8222;51.462;12.630;2022-08-24T05:57:33;12.05;;;10.95;;
16228;SDS011;8222;51.462;12.630;2022-08-24T06:00:02;13.13;;;12.00;;
16228;SDS011;8222;51.462;12.630;2022-08-24T06:02:30;12.13;;;11.05;;
16228;SDS011;8222;51.462;12.630;2022-08-24T06:04:55;12.60;;;11.60;;
16228;SDS011;8222;51.462;12.630;2022-08-24T06:07:21;13.40;;;12.17;;
16228;SDS011;8222;51.462;12.630;2022-08-24T06:09:47;12.60;;;11.40;;
16228;SDS011;8222;51.462;12.630;2022-08-24T06:12:13;12.43;;;11.43;;
16228;SDS011;8222;51.462;12.630;2022-08-24T06:14:38;12.97;;;11.87;;
16228;SDS011;8222;51.462;12.630;2022-08-24T06:17:05;12.57;;;11.57;;
16228;SDS011;8222;51.462;12.630;2022-08-24T06:19:33;13.20;;;12.10;;
16228;SDS011;8222;51.462;12.630;2022-08-24T06:21:59;13.63;;;12.43;;
16228;SDS011;8222;51.462;12.630;2022-08-24T06:24:25;13.00;;;12.00;;
16228;SDS011;8222;51.462;12.630;2022-08-24T06:27:14;13.30;;;12.20;;
16228;SDS011;8222;51.462;12.630;2022-08-24T06:29:53;13.80;;;12.57;;
16228;SDS011;8222;51.462;12.630;2022-08-24T06:32:21;12.70;;;11.70;;
16228;SDS011;8222;51.462;12.630;2022-08-24T06:34:48;13.50;;;12.20;;
16228;SDS011;8222;51.462;12.630;2022-08-24T06:37:14;13.27;;;12.15;;
16228;SDS011;8222;51.462;12.630;2022-08-24T06:39:39;13.17;;;12.07;;
16228;SDS011;8222;51.462;12.630;2022-08-24T06:42:05;11.73;;;10.82;;
16228;SDS011;8222;51.462;12.630;2022-08-24T06:44:31;12.80;;;11.70;;
16228;SDS011;8222;51.462;12.630;2022-08-24T06:46:57;11.77;;;10.77;;
16228;SDS011;8222;51.462;12.630;2022-08-24T06:49:23;11.30;;;10.23;;
16228;SDS011;8222;51.462;12.630;2022-08-24T06:51:48;11.63;;;10.63;;
16228;SDS011;8222;51.462;12.630;2022-08-24T06:54:15;11.63;;;10.57;;
16228;SDS011;8222;51.462;12.630;2022-08-24T06:56:41;10.15;;;9.25;;
16228;SDS011;8222;51.462;12.630;2022-08-24T06:59:07;10.82;;;9.93;;
16228;SDS011;8222;51.462;12.630;2022-08-24T07:01:33;9.88;;;9.07;;
16228;SDS011;8222;51.462;12.630;2022-08-24T07:03:58;10.43;;;9.60;;
16228;SDS011;8222;51.462;12.630;2022-08-24T07:06:24;10.65;;;9.65;;
16228;SDS011;8222;51.462;12.630;2022-08-24T07:08:51;10.63;;;9.67;;
16228;SDS011;8222;51.462;12.630;2022-08-24T07:11:18;9.57;;;8.70;;
16228;SDS011;8222;51.462;12.630;2022-08-24T07:13:44;9.43;;;8.52;;
16228;SDS011;8222;51.462;12.630;2022-08-24T07:16:11;9.90;;;9.20;;
16228;SDS011;8222;51.462;12.630;2022-08-24T07:18:38;9.70;;;8.80;;
16228;SDS011;8222;51.462;12.630;2022-08-24T07:21:04;9.43;;;8.63;;
16228;SDS011;8222;51.462;12.630;2022-08-24T07:23:31;9.85;;;8.95;;
16228;SDS011;8222;51.462;12.630;2022-08-24T07:26:03;9.82;;;9.00;;
16228;SDS011;8222;51.462;12.630;2022-08-24T07:28:36;10.40;;;9.43;;
16228;SDS011;8222;51.462;12.630;2022-08-24T07:31:02;10.68;;;9.77;;
16228;SDS011;8222;51.462;12.630;2022-08-24T07:33:28;9.70;;;8.88;;
16228;SDS011;8222;51.462;12.630;2022-08-24T07:35:54;9.17;;;8.37;;
16228;SDS011;8222;51.462;12.630;2022-08-24T07:38:20;10.57;;;9.45;;
16228;SDS011;8222;51.462;12.630;2022-08-24T07:40:46;9.33;;;8.50;;
16228;SDS011;8222;51.462;12.630;2022-08-24T07:43:12;9.38;;;8.57;;
16228;SDS011;8222;51.462;12.630;2022-08-24T07:45:41;9.13;;;8.25;;
16228;SDS011;8222;51.462;12.630;2022-08-24T07:48:07;9.27;;;8.52;;
16228;SDS011;8222;51.462;12.630;2022-08-24T07:50:33;9.43;;;8.63;;
16228;SDS011;8222;51.462;12.630;2022-08-24T07:53:01;10.07;;;9.10;;
16228;SDS011;8222;51.462;12.630;2022-08-24T07:55:26;10.90;;;9.90;;
16228;SDS011;8222;51.462;12.630;2022-08-24T07:57:52;9.80;;;9.00;;
16228;SDS011;8222;51.462;12.630;2022-08-24T08:00:19;10.05;;;9.20;;
16228;SDS011;8222;51.462;12.630;2022-08-24T08:02:45;9.30;;;8.55;;
16228;SDS011;8222;51.462;12.630;2022-08-24T08:05:15;10.88;;;8.77;;
16228;SDS011;8222;51.462;12.630;2022-08-24T08:07:44;11.10;;;7.80;;
16228;SDS011;8222;51.462;12.630;2022-08-24T08:10:10;7.87;;;7.10;;
16228;SDS011;8222;51.462;12.630;2022-08-24T08:12:36;6.88;;;6.28;;
16228;SDS011;8222;51.462;12.630;2022-08-24T08:15:03;6.35;;;5.85;;
16228;SDS011;8222;51.462;12.630;2022-08-24T08:17:32;6.30;;;5.70;;
16228;SDS011;8222;51.462;12.630;2022-08-24T12:00:24;4.32;;;3.92;;
16228;SDS011;8222;51.462;12.630;2022-08-24T12:11:02;3.50;;;3.30;;
16228;SDS011;8222;51.462;12.630;2022-08-24T12:14:04;3.70;;;3.40;;
16228;SDS011;8222;51.462;12.630;2022-08-24T12:19:42;3.83;;;3.53;;
16228;SDS011;8222;51.462;12.630;2022-08-24T12:22:13;3.80;;;3.50;;
16228;SDS011;8222;51.462;12.630;2022-08-24T12:24:45;3.80;;;3.50;;
16228;SDS011;8222;51.462;12.630;2022-08-24T12:35:05;4.00;;;3.30;;
16228;SDS011;8222;51.462;12.630;2022-08-24T12:37:54;3.40;;;3.10;;
16228;SDS011;8222;51.462;12.630;2022-08-24T12:40:31;3.72;;;3.47;;
16228;SDS011;8222;51.462;12.630;2022-08-24T12:43:05;3.28;;;3.08;;
16228;SDS011;8222;51.462;12.630;2022-08-24T12:45:54;3.30;;;3.10;;
16228;SDS011;8222;51.462;12.630;2022-08-24T12:48:26;3.55;;;3.20;;
16228;SDS011;8222;51.462;12.630;2022-08-24T12:59:27;4.93;;;3.30;;
16228;SDS011;8222;51.462;12.630;2022-08-24T13:17:50;3.92;;;3.40;;
16228;SDS011;8222;51.462;12.630;2022-08-24T13:42:18;3.70;;;3.40;;
16228;SDS011;8222;51.462;12.630;2022-08-24T13:47:54;3.72;;;3.42;;
16228;SDS011;8222;51.462;12.630;2022-08-24T13:53:51;3.63;;;3.33;;
16228;SDS011;8222;51.462;12.630;2022-08-24T13:56:58;4.10;;;3.70;;
16228;SDS011;8222;51.462;12.630;2022-08-24T13:59:49;4.63;;;3.63;;
16228;SDS011;8222;51.462;12.630;2022-08-24T14:13:51;3.13;;;2.92;;
16228;SDS011;8222;51.462;12.630;2022-08-24T14:16:31;6.47;;;5.97;;
16228;SDS011;8222;51.462;12.630;2022-08-24T14:22:16;5.15;;;3.58;;
16228;SDS011;8222;51.462;12.630;2022-08-24T14:24:47;5.38;;;3.60;;
16228;SDS011;8222;51.462;12.630;2022-08-24T14:27:38;3.70;;;3.30;;
16228;SDS011;8222;51.462;12.630;2022-08-24T14:32:45;3.22;;;3.03;;
16228;SDS011;8222;51.462;12.630;2022-08-24T14:35:27;3.63;;;3.33;;
16228;SDS011;8222;51.462;12.630;2022-08-24T14:49:33;3.43;;;3.13;;
16228;SDS011;8222;51.462;12.630;2022-08-24T14:52:15;3.92;;;3.63;;
16228;SDS011;8222;51.462;12.630;2022-08-24T15:08:49;3.88;;;3.60;;
16228;SDS011;8222;51.462;12.630;2022-08-24T15:11:25;4.13;;;3.75;;
16228;SDS011;8222;51.462;12.630;2022-08-24T15:14:00;4.20;;;3.80;;
16228;SDS011;8222;51.462;12.630;2022-08-24T15:25:33;4.35;;;3.95;;
16228;SDS011;8222;51.462;12.630;2022-08-24T15:28:33;4.68;;;4.13;;
16228;SDS011;8222;51.462;12.630;2022-08-24T15:33:31;4.35;;;4.05;;
16228;SDS011;8222;51.462;12.630;2022-08-24T15:36:14;5.10;;;4.65;;
16228;SDS011;8222;51.462;12.630;2022-08-24T15:38:41;5.03;;;4.73;;
16228;SDS011;8222;51.462;12.630;2022-08-24T15:44:21;4.55;;;4.22;;
16228;SDS011;8222;51.462;12.630;2022-08-24T15:46:51;5.35;;;4.28;;
16228;SDS011;8222;51.462;12.630;2022-08-24T15:49:21;4.78;;;4.38;;
16228;SDS011;8222;51.462;12.630;2022-08-24T15:51:56;4.78;;;4.38;;
16228;SDS011;8222;51.462;12.630;2022-08-24T15:56:56;4.53;;;4.18;;
16228;SDS011;8222;51.462;12.630;2022-08-24T15:59:30;4.90;;;4.47;;
16228;SDS011;8222;51.462;12.630;2022-08-24T16:07:29;4.88;;;4.38;;
16228;SDS011;8222;51.462;12.630;2022-08-24T16:10:27;4.65;;;4.35;;
16228;SDS011;8222;51.462;12.630;2022-08-24T16:16:00;4.90;;;4.50;;
16228;SDS011;8222;51.462;12.630;2022-08-24T16:21:48;5.15;;;4.55;;
16228;SDS011;8222;51.462;12.630;2022-08-24T16:24:37;4.88;;;4.53;;
16228;SDS011;8222;51.462;12.630;2022-08-24T16:27:05;5.15;;;4.65;;
16228;SDS011;8222;51.462;12.630;2022-08-24T16:34:39;6.03;;;5.43;;
16228;SDS011;8222;51.462;12.630;2022-08-24T16:37:06;6.13;;;5.57;;
16228;SDS011;8222;51.462;12.630;2022-08-24T16:39:33;5.75;;;5.18;;
16228;SDS011;8222;51.462;12.630;2022-08-24T16:42:01;5.90;;;5.25;;
16228;SDS011;8222;51.462;12.630;2022-08-24T16:44:37;5.75;;;5.22;;
16228;SDS011;8222;51.462;12.630;2022-08-24T16:47:06;6.35;;;5.60;;
16228;SDS011;8222;51.462;12.630;2022-08-24T16:49:32;6.00;;;5.40;;
16228;SDS011;8222;51.462;12.630;2022-08-24T16:51:59;5.78;;;5.38;;
16228;SDS011;8222;51.462;12.630;2022-08-24T16:54:27;5.75;;;5.25;;
16228;SDS011;8222;51.462;12.630;2022-08-24T16:56:54;6.32;;;5.63;;
16228;SDS011;8222;51.462;12.630;2022-08-24T16:59:26;6.32;;;5.70;;
16228;SDS011;8222;51.462;12.630;2022-08-24T17:01:54;6.50;;;5.90;;
16228;SDS011;8222;51.462;12.630;2022-08-24T17:04:19;5.93;;;5.50;;
16228;SDS011;8222;51.462;12.630;2022-08-24T17:06:45;6.13;;;5.30;;
16228;SDS011;8222;51.462;12.630;2022-08-24T17:09:15;6.40;;;5.40;;
16228;SDS011;8222;51.462;12.630;2022-08-24T17:11:43;5.53;;;5.03;;
16228;SDS011;8222;51.462;12.630;2022-08-24T17:14:11;5.57;;;5.07;;
16228;SDS011;8222;51.462;12.630;2022-08-24T17:16:37;7.05;;;4.82;;
16228;SDS011;8222;51.462;12.630;2022-08-24T17:19:06;5.60;;;5.20;;
16228;SDS011;8222;51.462;12.630;2022-08-24T17:21:36;5.82;;;5.22;;
16228;SDS011;8222;51.462;12.630;2022-08-24T17:24:03;6.63;;;5.50;;
16228;SDS011;8222;51.462;12.630;2022-08-24T17:26:31;6.70;;;5.55;;
16228;SDS011;8222;51.462;12.630;2022-08-24T17:28:57;6.03;;;5.53;;
16228;SDS011;8222;51.462;12.630;2022-08-24T17:31:26;6.07;;;5.57;;
16228;SDS011;8222;51.462;12.630;2022-08-24T17:33:53;6.07;;;5.57;;
16228;SDS011;8222;51.462;12.630;2022-08-24T17:36:22;6.35;;;5.53;;
16228;SDS011;8222;51.462;12.630;2022-08-24T17:38:49;5.40;;;5.00;;
16228;SDS011;8222;51.462;12.630;2022-08-24T17:41:16;6.63;;;6.10;;
16228;SDS011;8222;51.462;12.630;2022-08-24T17:43:42;5.60;;;5.13;;
16228;SDS011;8222;51.462;12.630;2022-08-24T17:46:10;6.10;;;5.60;;
16228;SDS011;8222;51.462;12.630;2022-08-24T17:48:38;6.03;;;5.43;;
16228;SDS011;8222;51.462;12.630;2022-08-24T17:51:06;5.88;;;5.43;;
16228;SDS011;8222;51.462;12.630;2022-08-24T17:53:33;7.45;;;6.70;;
16228;SDS011;8222;51.462;12.630;2022-08-24T17:56:00;6.80;;;6.07;;
16228;SDS011;8222;51.462;12.630;2022-08-24T17:58:27;6.82;;;5.95;;
16228;SDS011;8222;51.462;12.630;2022-08-24T18:00:53;7.05;;;6.43;;
16228;SDS011;8222;51.462;12.630;2022-08-24T18:03:18;6.45;;;5.93;;
16228;SDS011;8222;51.462;12.630;2022-08-24T18:05:44;7.28;;;6.38;;
16228;SDS011;8222;51.462;12.630;2022-08-24T18:08:11;7.15;;;6.32;;
16228;SDS011;8222;51.462;12.630;2022-08-24T18:10:37;6.13;;;5.53;;
16228;SDS011;8222;51.462;12.630;2022-08-24T18:13:03;6.55;;;6.05;;
16228;SDS011;8222;51.462;12.630;2022-08-24T18:15:33;6.18;;;5.55;;
16228;SDS011;8222;51.462;12.630;2022-08-24T18:18:00;7.72;;;6.50;;
16228;SDS011;8222;51.462;12.630;2022-08-24T18:20:28;6.78;;;6.10;;
16228;SDS011;8222;51.462;12.630;2022-08-24T18:23:00;7.15;;;6.55;;
16228;SDS011;8222;51.462;12.630;2022-08-24T18:25:28;7.40;;;6.80;;
16228;SDS011;8222;51.462;12.630;2022-08-24T18:27:54;6.88;;;6.22;;
16228;SDS011;8222;51.462;12.630;2022-08-24T18:30:23;7.80;;;7.00;;
16228;SDS011;8222;51.462;12.630;2022-08-24T18:32:51;6.72;;;6.22;;
16228;SDS011;8222;51.462;12.630;2022-08-24T18:35:18;7.57;;;6.80;;
16228;SDS011;8222;51.462;12.630;2022-08-24T18:37:44;7.53;;;6.85;;
16228;SDS011;8222;51.462;12.630;2022-08-24T18:40:10;8.25;;;6.55;;
16228;SDS011;8222;51.462;12.630;2022-08-24T18:42:39;7.10;;;6.45;;
16228;SDS011;8222;51.462;12.630;2022-08-24T18:45:06;8.77;;;7.28;;
16228;SDS011;8222;51.462;12.630;2022-08-24T18:47:33;7.78;;;6.97;;
16228;SDS011;8222;51.462;12.630;2022-08-24T18:49:59;7.40;;;6.80;;
16228;SDS011;8222;51.462;12.630;2022-08-24T18:52:27;7.90;;;7.30;;
16228;SDS011;8222;51.462;12.630;2022-08-24T18:54:53;7.90;;;6.90;;
16228;SDS011;8222;51.462;12.630;2022-08-24T18:57:18;7.73;;;7.00;;
16228;SDS011;8222;51.462;12.630;2022-08-24T18:59:44;7.50;;;6.70;;
16228;SDS011;8222;51.462;12.630;2022-08-24T19:02:16;7.40;;;6.80;;
16228;SDS011;8222;51.462;12.630;2022-08-24T19:05:10;7.87;;;7.13;;
16228;SDS011;8222;51.462;12.630;2022-08-24T19:07:40;10.68;;;9.32;;
16228;SDS011;8222;51.462;12.630;2022-08-24T19:10:08;10.35;;;9.43;;
16228;SDS011;8222;51.462;12.630;2022-08-24T19:12:36;8.60;;;7.80;;
16228;SDS011;8222;51.462;12.630;2022-08-24T19:15:04;8.50;;;7.68;;
16228;SDS011;8222;51.462;12.630;2022-08-24T19:17:31;7.72;;;7.03;;
16228;SDS011;8222;51.462;12.630;2022-08-24T19:19:57;8.20;;;7.30;;
16228;SDS011;8222;51.462;12.630;2022-08-24T19:22:22;8.45;;;7.45;;
16228;SDS011;8222;51.462;12.630;2022-08-24T19:24:49;8.10;;;7.38;;
16228;SDS011;8222;51.462;12.630;2022-08-24T19:27:16;7.93;;;7.13;;
16228;SDS011;8222;51.462;12.630;2022-08-24T19:29:43;7.70;;;7.05;;
16228;SDS011;8222;51.462;12.630;2022-08-24T19:32:09;8.03;;;7.33;;
16228;SDS011;8222;51.462;12.630;2022-08-24T19:34:38;8.20;;;7.60;;
16228;SDS011;8222;51.462;12.630;2022-08-24T19:37:08;8.98;;;8.10;;
16228;SDS011;8222;51.462;12.630;2022-08-24T19:39:33;9.10;;;7.93;;
16228;SDS011;8222;51.462;12.630;2022-08-24T19:41:59;11.68;;;7.90;;
16228;SDS011;8222;51.462;12.630;2022-08-24T19:44:25;8.45;;;7.65;;
16228;SDS011;8222;51.462;12.630;2022-08-24T19:47:12;8.67;;;7.90;;
16228;SDS011;8222;51.462;12.630;2022-08-24T19:49:41;8.82;;;8.05;;
16228;SDS011;8222;51.462;12.630;2022-08-24T19:52:07;8.95;;;7.88;;
16228;SDS011;8222;51.462;12.630;2022-08-24T19:54:36;9.10;;;8.20;;
16228;SDS011;8222;51.462;12.630;2022-08-24T20:02:49;9.17;;;8.07;;
16228;SDS011;8222;51.462;12.630;2022-08-24T20:05:17;8.18;;;7.47;;
16228;SDS011;8222;51.462;12.630;2022-08-24T20:07:45;8.48;;;7.72;;
16228;SDS011;8222;51.462;12.630;2022-08-24T20:10:12;8.73;;;8.02;;
16228;SDS011;8222;51.462;12.630;2022-08-24T20:12:39;8.33;;;7.70;;
16228;SDS011;8222;51.462;12.630;2022-08-24T20:15:05;9.50;;;7.97;;
16228;SDS011;8222;51.462;12.630;2022-08-24T20:17:32;9.07;;;8.38;;
16228;SDS011;8222;51.462;12.630;2022-08-24T20:19:59;9.07;;;8.23;;
16228;SDS011;8222;51.462;12.630;2022-08-24T20:22:28;9.43;;;8.60;;
16228;SDS011;8222;51.462;12.630;2022-08-24T20:24:54;9.10;;;8.40;;
16228;SDS011;8222;51.462;12.630;2022-08-24T20:27:23;8.70;;;7.90;;
16228;SDS011;8222;51.462;12.630;2022-08-24T20:29:50;8.90;;;8.10;;
16228;SDS011;8222;51.462;12.630;2022-08-24T20:32:19;8.90;;;8.00;;
16228;SDS011;8222;51.462;12.630;2022-08-24T20:34:45;9.02;;;8.07;;
16228;SDS011;8222;51.462;12.630;2022-08-24T20:37:20;9.13;;;8.23;;
16228;SDS011;8222;51.462;12.630;2022-08-24T20:39:48;9.05;;;8.15;;
16228;SDS011;8222;51.462;12.630;2022-08-24T20:42:17;8.75;;;7.47;;
16228;SDS011;8222;51.462;12.630;2022-08-24T20:44:43;8.95;;;8.13;;
16228;SDS011;8222;51.462;12.630;2022-08-24T20:47:12;8.65;;;7.95;;
16228;SDS011;8222;51.462;12.630;2022-08-24T20:49:38;8.68;;;8.05;;
16228;SDS011;8222;51.462;12.630;2022-08-24T20:52:05;9.45;;;8.55;;
16228;SDS011;8222;51.462;12.630;2022-08-24T20:54:32;9.30;;;8.50;;
16228;SDS011;8222;51.462;12.630;2022-08-24T20:56:58;10.07;;;8.23;;
16228;SDS011;8222;51.462;12.630;2022-08-24T20:59:25;9.25;;;8.25;;
16228;SDS011;8222;51.462;12.630;2022-08-24T21:01:53;9.27;;;8.48;;
16228;SDS011;8222;51.462;12.630;2022-08-24T21:04:20;10.32;;;9.13;;
16228;SDS011;8222;51.462;12.630;2022-08-24T21:06:46;8.93;;;8.23;;
16228;SDS011;8222;51.462;12.630;2022-08-24T21:09:14;8.97;;;8.17;;
16228;SDS011;8222;51.462;12.630;2022-08-24T21:11:40;9.67;;;8.80;;
16228;SDS011;8222;51.462;12.630;2022-08-24T21:14:07;9.80;;;8.90;;